sensor_id;sensor_type;location;lat;lon;timestamp;P1;durP1;ratioP1;P2;durP2;ratioP2
92;SDS011;16232;48.800;9.002;2023-04-25T00:01:17;2.63;;;1.43;;
92;SDS011;16232;48.800;9.002;2023-04-25T00:03:45;2.23;;;1.30;;
92;SDS011;16232;48.800;9.002;2023-04-25T00:06:12;1.80;;;1.40;;
92;SDS011;16232;48.800;9.002;2023-04-25T00:08:40;3.17;;;1.43;;
92;SDS011;16232;48.800;9.002;2023-04-25T00:11:07;2.17;;;1.53;;
92;SDS011;16232;48.800;9.002;2023-04-25T00:13:35;1.47;;;1.30;;
92;SDS011;16232;48.800;9.002;2023-04-25T00:16:04;1.60;;;1.50;;
92;SDS011;16232;48.800;9.002;2023-04-25T00:18:31;4.07;;;2.03;;
92;SDS011;16232;48.800;9.002;2023-04-25T00:20:59;1.53;;;1.40;;
92;SDS011;16232;48.800;9.002;2023-04-25T00:23:26;3.60;;;1.50;;
92;SDS011;16232;48.800;9.002;2023-04-25T00:25:53;2.13;;;1.60;;
92;SDS011;16232;48.800;9.002;2023-04-25T00:28:21;2.13;;;1.60;;
92;SDS011;16232;48.800;9.002;2023-04-25T00:30:48;2.90;;;1.93;;
92;SDS011;16232;48.800;9.002;2023-04-25T00:33:17;2.23;;;1.60;;
92;SDS011;16232;48.800;9.002;2023-04-25T00:35:45;1.97;;;1.50;;
92;SDS011;16232;48.800;9.002;2023-04-25T00:38:12;2.10;;;1.50;;
92;SDS011;16232;48.800;9.002;2023-04-25T00:40:40;2.80;;;1.53;;
92;SDS011;16232;48.800;9.002;2023-04-25T00:43:08;1.57;;;1.47;;
92;SDS011;16232;48.800;9.002;2023-04-25T00:45:37;1.70;;;1.60;;
92;SDS011;16232;48.800;9.002;2023-04-25T00:48:04;2.60;;;2.00;;
92;SDS011;16232;48.800;9.002;2023-04-25T00:50:33;2.90;;;1.90;;
92;SDS011;16232;48.800;9.002;2023-04-25T00:53:01;1.70;;;1.60;;
92;SDS011;16232;48.800;9.002;2023-04-25T00:55:29;2.20;;;1.90;;
92;SDS011;16232;48.800;9.002;2023-04-25T00:57:57;2.90;;;2.13;;
92;SDS011;16232;48.800;9.002;2023-04-25T01:00:25;3.83;;;2.10;;
92;SDS011;16232;48.800;9.002;2023-04-25T01:02:53;2.90;;;1.77;;
92;SDS011;16232;48.800;9.002;2023-04-25T01:05:20;1.90;;;1.70;;
92;SDS011;16232;48.800;9.002;2023-04-25T01:07:49;2.07;;;1.90;;
92;SDS011;16232;48.800;9.002;2023-04-25T01:10:16;2.50;;;2.30;;
92;SDS011;16232;48.800;9.002;2023-04-25T01:12:44;2.57;;;2.37;;
92;SDS011;16232;48.800;9.002;2023-04-25T01:15:11;3.83;;;2.50;;
92;SDS011;16232;48.800;9.002;2023-04-25T01:17:39;2.53;;;2.00;;
92;SDS011;16232;48.800;9.002;2023-04-25T01:20:09;3.03;;;2.67;;
92;SDS011;16232;48.800;9.002;2023-04-25T01:22:39;4.07;;;2.87;;
92;SDS011;16232;48.800;9.002;2023-04-25T01:25:07;2.70;;;2.50;;
92;SDS011;16232;48.800;9.002;2023-04-25T01:27:35;2.83;;;2.30;;
92;SDS011;16232;48.800;9.002;2023-04-25T01:30:03;4.03;;;2.43;;
92;SDS011;16232;48.800;9.002;2023-04-25T01:32:30;3.37;;;2.43;;
92;SDS011;16232;48.800;9.002;2023-04-25T01:35:03;3.73;;;2.43;;
92;SDS011;16232;48.800;9.002;2023-04-25T01:37:34;2.83;;;2.20;;
92;SDS011;16232;48.800;9.002;2023-04-25T01:40:04;4.60;;;2.63;;
92;SDS011;16232;48.800;9.002;2023-04-25T01:42:32;3.27;;;2.70;;
92;SDS011;16232;48.800;9.002;2023-04-25T01:45:00;2.70;;;2.47;;
92;SDS011;16232;48.800;9.002;2023-04-25T01:47:27;3.50;;;2.40;;
92;SDS011;16232;48.800;9.002;2023-04-25T01:49:55;5.00;;;2.60;;
92;SDS011;16232;48.800;9.002;2023-04-25T01:52:22;3.37;;;2.70;;
92;SDS011;16232;48.800;9.002;2023-04-25T01:54:50;4.47;;;2.53;;
92;SDS011;16232;48.800;9.002;2023-04-25T01:57:19;5.53;;;2.73;;
92;SDS011;16232;48.800;9.002;2023-04-25T01:59:46;4.70;;;2.73;;
92;SDS011;16232;48.800;9.002;2023-04-25T02:02:14;4.27;;;2.40;;
92;SDS011;16232;48.800;9.002;2023-04-25T02:04:41;5.87;;;2.37;;
92;SDS011;16232;48.800;9.002;2023-04-25T02:07:09;3.47;;;2.60;;
92;SDS011;16232;48.800;9.002;2023-04-25T02:09:36;3.83;;;2.67;;
92;SDS011;16232;48.800;9.002;2023-04-25T02:12:04;3.17;;;2.83;;
92;SDS011;16232;48.800;9.002;2023-04-25T02:14:33;3.40;;;3.10;;
92;SDS011;16232;48.800;9.002;2023-04-25T02:17:00;3.30;;;2.33;;
92;SDS011;16232;48.800;9.002;2023-04-25T02:19:27;4.33;;;3.10;;
92;SDS011;16232;48.800;9.002;2023-04-25T02:21:55;4.57;;;2.97;;
92;SDS011;16232;48.800;9.002;2023-04-25T02:24:23;5.10;;;3.27;;
92;SDS011;16232;48.800;9.002;2023-04-25T02:26:53;4.40;;;3.00;;
92;SDS011;16232;48.800;9.002;2023-04-25T02:29:21;3.57;;;3.07;;
92;SDS011;16232;48.800;9.002;2023-04-25T02:31:49;3.07;;;2.87;;
92;SDS011;16232;48.800;9.002;2023-04-25T02:34:17;3.20;;;2.87;;
92;SDS011;16232;48.800;9.002;2023-04-25T02:36:45;4.13;;;3.30;;
92;SDS011;16232;48.800;9.002;2023-04-25T02:39:12;4.60;;;3.30;;
92;SDS011;16232;48.800;9.002;2023-04-25T02:41:39;3.37;;;3.07;;
92;SDS011;16232;48.800;9.002;2023-04-25T02:44:07;4.47;;;3.20;;
92;SDS011;16232;48.800;9.002;2023-04-25T02:46:35;3.80;;;3.43;;
92;SDS011;16232;48.800;9.002;2023-04-25T02:49:03;3.90;;;3.47;;
92;SDS011;16232;48.800;9.002;2023-04-25T02:51:31;4.80;;;3.43;;
92;SDS011;16232;48.800;9.002;2023-04-25T02:53:58;4.87;;;3.53;;
92;SDS011;16232;48.800;9.002;2023-04-25T02:56:26;5.10;;;4.00;;
92;SDS011;16232;48.800;9.002;2023-04-25T02:58:53;4.47;;;4.07;;
92;SDS011;16232;48.800;9.002;2023-04-25T03:01:21;4.63;;;4.23;;
92;SDS011;16232;48.800;9.002;2023-04-25T03:03:48;6.50;;;4.00;;
92;SDS011;16232;48.800;9.002;2023-04-25T03:06:17;4.20;;;3.80;;
92;SDS011;16232;48.800;9.002;2023-04-25T03:08:45;4.27;;;3.50;;
92;SDS011;16232;48.800;9.002;2023-04-25T03:11:12;5.77;;;3.70;;
92;SDS011;16232;48.800;9.002;2023-04-25T03:13:39;4.10;;;3.10;;
92;SDS011;16232;48.800;9.002;2023-04-25T03:16:07;3.57;;;3.27;;
92;SDS011;16232;48.800;9.002;2023-04-25T03:18:35;4.13;;;3.37;;
92;SDS011;16232;48.800;9.002;2023-04-25T03:21:02;4.13;;;2.90;;
92;SDS011;16232;48.800;9.002;2023-04-25T03:23:31;4.30;;;3.20;;
92;SDS011;16232;48.800;9.002;2023-04-25T03:25:58;3.23;;;2.77;;
92;SDS011;16232;48.800;9.002;2023-04-25T03:28:26;3.83;;;3.10;;
92;SDS011;16232;48.800;9.002;2023-04-25T03:30:53;4.43;;;3.03;;
92;SDS011;16232;48.800;9.002;2023-04-25T03:33:21;3.73;;;3.33;;
92;SDS011;16232;48.800;9.002;2023-04-25T03:35:49;3.50;;;3.10;;
92;SDS011;16232;48.800;9.002;2023-04-25T03:38:16;3.63;;;3.20;;
92;SDS011;16232;48.800;9.002;2023-04-25T03:40:45;3.63;;;3.17;;
92;SDS011;16232;48.800;9.002;2023-04-25T03:43:13;3.97;;;2.77;;
92;SDS011;16232;48.800;9.002;2023-04-25T03:45:40;3.00;;;2.80;;
92;SDS011;16232;48.800;9.002;2023-04-25T03:48:07;4.10;;;2.80;;
92;SDS011;16232;48.800;9.002;2023-04-25T03:50:35;3.33;;;3.03;;
92;SDS011;16232;48.800;9.002;2023-04-25T03:53:02;3.43;;;3.10;;
92;SDS011;16232;48.800;9.002;2023-04-25T03:55:30;5.53;;;2.77;;
92;SDS011;16232;48.800;9.002;2023-04-25T03:57:58;3.73;;;3.00;;
92;SDS011;16232;48.800;9.002;2023-04-25T04:00:26;2.97;;;2.70;;
92;SDS011;16232;48.800;9.002;2023-04-25T04:02:53;2.80;;;2.60;;
92;SDS011;16232;48.800;9.002;2023-04-25T04:05:21;3.80;;;2.80;;
92;SDS011;16232;48.800;9.002;2023-04-25T04:07:48;3.47;;;3.17;;
92;SDS011;16232;48.800;9.002;2023-04-25T04:10:16;3.37;;;2.73;;
92;SDS011;16232;48.800;9.002;2023-04-25T04:12:43;3.87;;;2.90;;
92;SDS011;16232;48.800;9.002;2023-04-25T04:15:12;3.60;;;2.60;;
92;SDS011;16232;48.800;9.002;2023-04-25T04:17:40;5.07;;;3.30;;
92;SDS011;16232;48.800;9.002;2023-04-25T04:20:07;3.37;;;3.07;;
92;SDS011;16232;48.800;9.002;2023-04-25T04:22:36;4.57;;;3.73;;
92;SDS011;16232;48.800;9.002;2023-04-25T04:25:04;5.83;;;3.70;;
92;SDS011;16232;48.800;9.002;2023-04-25T04:27:32;5.23;;;4.13;;
92;SDS011;16232;48.800;9.002;2023-04-25T04:29:59;5.27;;;3.70;;
92;SDS011;16232;48.800;9.002;2023-04-25T04:32:29;4.73;;;3.63;;
92;SDS011;16232;48.800;9.002;2023-04-25T04:34:57;5.00;;;4.00;;
92;SDS011;16232;48.800;9.002;2023-04-25T04:37:25;4.07;;;3.67;;
92;SDS011;16232;48.800;9.002;2023-04-25T04:39:52;4.57;;;3.43;;
92;SDS011;16232;48.800;9.002;2023-04-25T04:42:19;4.53;;;4.00;;
92;SDS011;16232;48.800;9.002;2023-04-25T04:44:47;4.17;;;3.50;;
92;SDS011;16232;48.800;9.002;2023-04-25T04:47:15;3.97;;;3.17;;
92;SDS011;16232;48.800;9.002;2023-04-25T04:49:44;3.47;;;3.17;;
92;SDS011;16232;48.800;9.002;2023-04-25T04:52:11;5.83;;;3.53;;
92;SDS011;16232;48.800;9.002;2023-04-25T04:54:38;3.43;;;3.13;;
92;SDS011;16232;48.800;9.002;2023-04-25T04:57:06;3.80;;;3.30;;
92;SDS011;16232;48.800;9.002;2023-04-25T04:59:33;5.20;;;3.60;;
92;SDS011;16232;48.800;9.002;2023-04-25T05:02:01;4.53;;;3.10;;
92;SDS011;16232;48.800;9.002;2023-04-25T05:04:29;6.87;;;3.60;;
92;SDS011;16232;48.800;9.002;2023-04-25T05:06:57;5.00;;;3.17;;
92;SDS011;16232;48.800;9.002;2023-04-25T05:09:26;5.67;;;3.60;;
92;SDS011;16232;48.800;9.002;2023-04-25T05:11:53;4.27;;;3.23;;
92;SDS011;16232;48.800;9.002;2023-04-25T05:14:21;6.97;;;4.10;;
92;SDS011;16232;48.800;9.002;2023-04-25T05:16:48;5.03;;;4.47;;
92;SDS011;16232;48.800;9.002;2023-04-25T05:19:15;5.43;;;4.50;;
92;SDS011;16232;48.800;9.002;2023-04-25T05:21:43;5.17;;;4.30;;
92;SDS011;16232;48.800;9.002;2023-04-25T05:24:12;4.47;;;4.17;;
92;SDS011;16232;48.800;9.002;2023-04-25T05:26:39;5.13;;;4.50;;
92;SDS011;16232;48.800;9.002;2023-04-25T05:29:06;5.43;;;4.23;;
92;SDS011;16232;48.800;9.002;2023-04-25T05:31:35;5.30;;;4.80;;
92;SDS011;16232;48.800;9.002;2023-04-25T05:34:03;4.30;;;3.90;;
92;SDS011;16232;48.800;9.002;2023-04-25T05:36:30;5.20;;;3.80;;
92;SDS011;16232;48.800;9.002;2023-04-25T05:38:58;6.00;;;4.33;;
92;SDS011;16232;48.800;9.002;2023-04-25T05:41:26;4.47;;;4.07;;
92;SDS011;16232;48.800;9.002;2023-04-25T05:43:54;4.27;;;3.87;;
92;SDS011;16232;48.800;9.002;2023-04-25T05:46:21;5.17;;;3.80;;
92;SDS011;16232;48.800;9.002;2023-04-25T05:48:48;4.60;;;3.93;;
92;SDS011;16232;48.800;9.002;2023-04-25T05:51:16;4.60;;;3.80;;
92;SDS011;16232;48.800;9.002;2023-04-25T05:53:44;4.70;;;4.20;;
92;SDS011;16232;48.800;9.002;2023-04-25T05:56:11;4.03;;;3.73;;
92;SDS011;16232;48.800;9.002;2023-04-25T05:58:40;4.80;;;3.80;;
92;SDS011;16232;48.800;9.002;2023-04-25T06:01:08;3.87;;;3.47;;
92;SDS011;16232;48.800;9.002;2023-04-25T06:03:35;3.93;;;3.53;;
92;SDS011;16232;48.800;9.002;2023-04-25T06:06:03;4.77;;;3.07;;
92;SDS011;16232;48.800;9.002;2023-04-25T06:08:31;3.40;;;3.10;;
92;SDS011;16232;48.800;9.002;2023-04-25T06:10:58;3.10;;;2.90;;
92;SDS011;16232;48.800;9.002;2023-04-25T06:13:26;2.87;;;2.63;;
92;SDS011;16232;48.800;9.002;2023-04-25T06:15:55;3.17;;;2.77;;
92;SDS011;16232;48.800;9.002;2023-04-25T06:18:22;3.40;;;3.07;;
92;SDS011;16232;48.800;9.002;2023-04-25T06:20:49;5.10;;;3.00;;
92;SDS011;16232;48.800;9.002;2023-04-25T06:23:17;3.03;;;2.60;;
92;SDS011;16232;48.800;9.002;2023-04-25T06:25:44;3.90;;;2.87;;
92;SDS011;16232;48.800;9.002;2023-04-25T06:28:12;3.10;;;2.90;;
92;SDS011;16232;48.800;9.002;2023-04-25T06:30:39;3.20;;;2.73;;
92;SDS011;16232;48.800;9.002;2023-04-25T06:33:08;3.53;;;3.00;;
92;SDS011;16232;48.800;9.002;2023-04-25T06:35:35;3.27;;;2.97;;
92;SDS011;16232;48.800;9.002;2023-04-25T06:38:03;3.20;;;2.87;;
92;SDS011;16232;48.800;9.002;2023-04-25T06:40:30;4.70;;;3.67;;
92;SDS011;16232;48.800;9.002;2023-04-25T06:42:58;4.07;;;3.67;;
92;SDS011;16232;48.800;9.002;2023-04-25T06:45:25;4.47;;;4.07;;
92;SDS011;16232;48.800;9.002;2023-04-25T06:47:52;4.53;;;4.13;;
92;SDS011;16232;48.800;9.002;2023-04-25T06:50:21;5.20;;;4.63;;
92;SDS011;16232;48.800;9.002;2023-04-25T06:52:49;4.63;;;4.23;;
92;SDS011;16232;48.800;9.002;2023-04-25T06:55:16;4.57;;;4.10;;
92;SDS011;16232;48.800;9.002;2023-04-25T06:57:44;5.40;;;4.53;;
92;SDS011;16232;48.800;9.002;2023-04-25T07:00:11;5.00;;;4.30;;
92;SDS011;16232;48.800;9.002;2023-04-25T07:02:39;5.67;;;4.87;;
92;SDS011;16232;48.800;9.002;2023-04-25T07:05:08;5.00;;;4.37;;
92;SDS011;16232;48.800;9.002;2023-04-25T07:07:37;5.23;;;4.73;;
92;SDS011;16232;48.800;9.002;2023-04-25T07:10:05;6.73;;;5.67;;
92;SDS011;16232;48.800;9.002;2023-04-25T07:12:32;6.30;;;5.70;;
92;SDS011;16232;48.800;9.002;2023-04-25T07:15:00;5.87;;;5.27;;
92;SDS011;16232;48.800;9.002;2023-04-25T07:17:31;6.03;;;5.43;;
92;SDS011;16232;48.800;9.002;2023-04-25T07:19:59;6.47;;;5.87;;
92;SDS011;16232;48.800;9.002;2023-04-25T07:22:27;7.70;;;6.83;;
92;SDS011;16232;48.800;9.002;2023-04-25T07:24:56;6.40;;;5.80;;
92;SDS011;16232;48.800;9.002;2023-04-25T07:27:24;5.43;;;4.93;;
92;SDS011;16232;48.800;9.002;2023-04-25T07:29:51;6.63;;;5.93;;
92;SDS011;16232;48.800;9.002;2023-04-25T07:32:19;6.60;;;5.93;;
92;SDS011;16232;48.800;9.002;2023-04-25T07:34:46;7.67;;;5.67;;
92;SDS011;16232;48.800;9.002;2023-04-25T07:37:13;6.60;;;5.93;;
92;SDS011;16232;48.800;9.002;2023-04-25T07:39:41;6.83;;;5.97;;
92;SDS011;16232;48.800;9.002;2023-04-25T07:42:10;6.97;;;6.27;;
92;SDS011;16232;48.800;9.002;2023-04-25T07:44:37;6.50;;;5.93;;
92;SDS011;16232;48.800;9.002;2023-04-25T07:47:05;7.73;;;6.50;;
92;SDS011;16232;48.800;9.002;2023-04-25T07:49:33;8.37;;;6.10;;
92;SDS011;16232;48.800;9.002;2023-04-25T07:52:01;6.40;;;5.80;;
92;SDS011;16232;48.800;9.002;2023-04-25T07:54:28;6.77;;;6.07;;
92;SDS011;16232;48.800;9.002;2023-04-25T07:56:56;7.97;;;6.50;;
92;SDS011;16232;48.800;9.002;2023-04-25T07:59:25;6.87;;;6.13;;
92;SDS011;16232;48.800;9.002;2023-04-25T08:01:52;7.63;;;6.20;;
92;SDS011;16232;48.800;9.002;2023-04-25T08:04:19;7.63;;;6.27;;
92;SDS011;16232;48.800;9.002;2023-04-25T08:06:47;6.00;;;5.47;;
92;SDS011;16232;48.800;9.002;2023-04-25T08:09:15;5.80;;;5.30;;
92;SDS011;16232;48.800;9.002;2023-04-25T08:11:43;6.37;;;5.77;;
92;SDS011;16232;48.800;9.002;2023-04-25T08:14:10;6.93;;;6.23;;
92;SDS011;16232;48.800;9.002;2023-04-25T08:16:39;7.33;;;6.30;;
92;SDS011;16232;48.800;9.002;2023-04-25T08:19:07;8.90;;;6.87;;
92;SDS011;16232;48.800;9.002;2023-04-25T08:21:34;7.43;;;6.60;;
92;SDS011;16232;48.800;9.002;2023-04-25T08:24:02;8.27;;;6.80;;
92;SDS011;16232;48.800;9.002;2023-04-25T08:26:29;7.40;;;6.50;;
92;SDS011;16232;48.800;9.002;2023-04-25T08:28:57;6.53;;;5.93;;
92;SDS011;16232;48.800;9.002;2023-04-25T08:31:24;6.87;;;6.03;;
92;SDS011;16232;48.800;9.002;2023-04-25T08:33:53;8.27;;;6.40;;
92;SDS011;16232;48.800;9.002;2023-04-25T08:36:21;7.13;;;6.43;;
92;SDS011;16232;48.800;9.002;2023-04-25T08:38:49;6.63;;;6.03;;
92;SDS011;16232;48.800;9.002;2023-04-25T08:41:16;10.47;;;7.97;;
92;SDS011;16232;48.800;9.002;2023-04-25T08:43:45;9.70;;;7.77;;
92;SDS011;16232;48.800;9.002;2023-04-25T08:46:15;9.43;;;8.27;;
92;SDS011;16232;48.800;9.002;2023-04-25T08:48:44;7.67;;;6.90;;
92;SDS011;16232;48.800;9.002;2023-04-25T08:51:15;8.60;;;7.03;;
92;SDS011;16232;48.800;9.002;2023-04-25T08:53:43;9.57;;;8.30;;
92;SDS011;16232;48.800;9.002;2023-04-25T08:56:11;7.47;;;6.70;;
92;SDS011;16232;48.800;9.002;2023-04-25T08:58:39;9.30;;;8.33;;
92;SDS011;16232;48.800;9.002;2023-04-25T09:01:07;9.33;;;7.93;;
92;SDS011;16232;48.800;9.002;2023-04-25T09:03:34;8.50;;;7.67;;
92;SDS011;16232;48.800;9.002;2023-04-25T09:06:02;9.30;;;8.50;;
92;SDS011;16232;48.800;9.002;2023-04-25T09:08:32;9.93;;;7.80;;
92;SDS011;16232;48.800;9.002;2023-04-25T09:11:00;8.70;;;7.90;;
92;SDS011;16232;48.800;9.002;2023-04-25T09:13:28;9.83;;;7.70;;
92;SDS011;16232;48.800;9.002;2023-04-25T09:15:56;9.87;;;8.87;;
92;SDS011;16232;48.800;9.002;2023-04-25T09:18:24;12.10;;;9.47;;
92;SDS011;16232;48.800;9.002;2023-04-25T09:20:52;8.80;;;7.50;;
92;SDS011;16232;48.800;9.002;2023-04-25T09:23:20;8.20;;;7.40;;
92;SDS011;16232;48.800;9.002;2023-04-25T09:25:50;10.10;;;9.10;;
92;SDS011;16232;48.800;9.002;2023-04-25T09:28:22;7.63;;;6.93;;
92;SDS011;16232;48.800;9.002;2023-04-25T09:30:53;8.03;;;6.23;;
92;SDS011;16232;48.800;9.002;2023-04-25T09:33:23;6.93;;;6.03;;
92;SDS011;16232;48.800;9.002;2023-04-25T09:35:53;6.00;;;5.37;;
92;SDS011;16232;48.800;9.002;2023-04-25T09:38:22;7.17;;;5.17;;
92;SDS011;16232;48.800;9.002;2023-04-25T09:40:51;6.27;;;4.87;;
92;SDS011;16232;48.800;9.002;2023-04-25T09:43:19;6.53;;;5.73;;
92;SDS011;16232;48.800;9.002;2023-04-25T09:45:47;3.90;;;3.60;;
92;SDS011;16232;48.800;9.002;2023-04-25T09:48:17;3.47;;;3.17;;
92;SDS011;16232;48.800;9.002;2023-04-25T09:50:45;2.13;;;1.87;;
92;SDS011;16232;48.800;9.002;2023-04-25T09:53:12;2.87;;;2.50;;
92;SDS011;16232;48.800;9.002;2023-04-25T09:55:40;4.20;;;2.30;;
92;SDS011;16232;48.800;9.002;2023-04-25T09:58:10;1.93;;;1.73;;
92;SDS011;16232;48.800;9.002;2023-04-25T10:00:38;1.80;;;1.30;;
92;SDS011;16232;48.800;9.002;2023-04-25T10:03:06;1.30;;;1.20;;
92;SDS011;16232;48.800;9.002;2023-04-25T10:05:34;2.03;;;1.10;;
92;SDS011;16232;48.800;9.002;2023-04-25T10:08:03;1.73;;;1.63;;
92;SDS011;16232;48.800;9.002;2023-04-25T10:10:30;2.90;;;1.83;;
92;SDS011;16232;48.800;9.002;2023-04-25T10:13:04;1.50;;;1.40;;
92;SDS011;16232;48.800;9.002;2023-04-25T10:15:35;1.50;;;1.40;;
92;SDS011;16232;48.800;9.002;2023-04-25T10:18:03;1.33;;;1.23;;
92;SDS011;16232;48.800;9.002;2023-04-25T10:20:30;2.40;;;1.53;;
92;SDS011;16232;48.800;9.002;2023-04-25T10:22:58;1.33;;;0.90;;
92;SDS011;16232;48.800;9.002;2023-04-25T10:25:31;1.30;;;1.20;;
92;SDS011;16232;48.800;9.002;2023-04-25T10:27:59;1.27;;;1.17;;
92;SDS011;16232;48.800;9.002;2023-04-25T10:30:27;1.40;;;1.30;;
92;SDS011;16232;48.800;9.002;2023-04-25T10:32:56;2.63;;;1.17;;
92;SDS011;16232;48.800;9.002;2023-04-25T10:35:26;1.50;;;1.40;;
92;SDS011;16232;48.800;9.002;2023-04-25T10:37:58;1.73;;;1.30;;
92;SDS011;16232;48.800;9.002;2023-04-25T10:40:25;1.70;;;1.60;;
92;SDS011;16232;48.800;9.002;2023-04-25T10:42:53;2.67;;;2.47;;
92;SDS011;16232;48.800;9.002;2023-04-25T10:45:21;2.87;;;2.63;;
92;SDS011;16232;48.800;9.002;2023-04-25T10:47:48;4.13;;;3.83;;
92;SDS011;16232;48.800;9.002;2023-04-25T10:50:17;4.10;;;3.70;;
92;SDS011;16232;48.800;9.002;2023-04-25T10:52:45;5.50;;;4.83;;
92;SDS011;16232;48.800;9.002;2023-04-25T10:55:12;5.10;;;4.60;;
92;SDS011;16232;48.800;9.002;2023-04-25T10:57:40;6.17;;;5.13;;
92;SDS011;16232;48.800;9.002;2023-04-25T11:00:18;5.43;;;4.47;;
92;SDS011;16232;48.800;9.002;2023-04-25T11:02:48;4.60;;;4.20;;
92;SDS011;16232;48.800;9.002;2023-04-25T11:05:19;5.27;;;4.77;;
92;SDS011;16232;48.800;9.002;2023-04-25T11:07:49;5.33;;;4.83;;
92;SDS011;16232;48.800;9.002;2023-04-25T11:10:17;5.07;;;4.67;;
92;SDS011;16232;48.800;9.002;2023-04-25T11:12:46;4.23;;;3.83;;
92;SDS011;16232;48.800;9.002;2023-04-25T11:15:13;4.97;;;3.43;;
92;SDS011;16232;48.800;9.002;2023-04-25T11:17:41;3.00;;;2.80;;
92;SDS011;16232;48.800;9.002;2023-04-25T11:20:11;4.57;;;2.80;;
92;SDS011;16232;48.800;9.002;2023-04-25T11:22:42;3.40;;;2.70;;
92;SDS011;16232;48.800;9.002;2023-04-25T11:25:11;3.33;;;3.03;;
92;SDS011;16232;48.800;9.002;2023-04-25T11:27:39;4.17;;;3.77;;
92;SDS011;16232;48.800;9.002;2023-04-25T11:30:16;4.27;;;3.07;;
92;SDS011;16232;48.800;9.002;2023-04-25T11:32:44;4.47;;;4.07;;
92;SDS011;16232;48.800;9.002;2023-04-25T11:35:12;4.57;;;3.67;;
92;SDS011;16232;48.800;9.002;2023-04-25T11:37:41;4.77;;;4.10;;
92;SDS011;16232;48.800;9.002;2023-04-25T11:40:09;7.43;;;6.73;;
92;SDS011;16232;48.800;9.002;2023-04-25T11:42:37;5.40;;;5.00;;
92;SDS011;16232;48.800;9.002;2023-04-25T11:45:05;5.13;;;4.63;;
92;SDS011;16232;48.800;9.002;2023-04-25T11:47:33;4.40;;;4.00;;
92;SDS011;16232;48.800;9.002;2023-04-25T11:50:01;5.37;;;4.87;;
92;SDS011;16232;48.800;9.002;2023-04-25T11:52:36;6.03;;;5.43;;
92;SDS011;16232;48.800;9.002;2023-04-25T11:55:06;5.20;;;4.67;;
92;SDS011;16232;48.800;9.002;2023-04-25T11:57:33;6.03;;;5.40;;
92;SDS011;16232;48.800;9.002;2023-04-25T12:00:08;6.27;;;5.30;;
92;SDS011;16232;48.800;9.002;2023-04-25T12:02:36;7.13;;;6.33;;
92;SDS011;16232;48.800;9.002;2023-04-25T12:05:06;7.53;;;6.47;;
92;SDS011;16232;48.800;9.002;2023-04-25T12:07:34;8.43;;;7.00;;
92;SDS011;16232;48.800;9.002;2023-04-25T12:10:08;7.20;;;6.50;;
92;SDS011;16232;48.800;9.002;2023-04-25T12:12:35;8.13;;;6.47;;
92;SDS011;16232;48.800;9.002;2023-04-25T12:15:10;9.60;;;7.63;;
92;SDS011;16232;48.800;9.002;2023-04-25T12:17:39;8.77;;;6.50;;
92;SDS011;16232;48.800;9.002;2023-04-25T12:20:08;9.27;;;6.83;;
92;SDS011;16232;48.800;9.002;2023-04-25T12:22:35;7.90;;;7.10;;
92;SDS011;16232;48.800;9.002;2023-04-25T12:25:03;9.33;;;7.90;;
92;SDS011;16232;48.800;9.002;2023-04-25T12:27:32;8.60;;;6.27;;
92;SDS011;16232;48.800;9.002;2023-04-25T12:30:01;10.87;;;7.17;;
92;SDS011;16232;48.800;9.002;2023-04-25T12:32:30;7.07;;;6.37;;
92;SDS011;16232;48.800;9.002;2023-04-25T12:34:57;10.03;;;6.93;;
92;SDS011;16232;48.800;9.002;2023-04-25T12:37:25;8.10;;;7.30;;
92;SDS011;16232;48.800;9.002;2023-04-25T12:39:52;8.10;;;7.30;;
92;SDS011;16232;48.800;9.002;2023-04-25T12:42:19;7.73;;;6.97;;
92;SDS011;16232;48.800;9.002;2023-04-25T12:44:48;8.73;;;7.67;;
92;SDS011;16232;48.800;9.002;2023-04-25T12:47:16;10.57;;;8.13;;
92;SDS011;16232;48.800;9.002;2023-04-25T12:49:43;7.13;;;6.43;;
92;SDS011;16232;48.800;9.002;2023-04-25T12:52:11;7.93;;;6.40;;
92;SDS011;16232;48.800;9.002;2023-04-25T12:54:38;7.50;;;6.17;;
92;SDS011;16232;48.800;9.002;2023-04-25T12:57:06;8.03;;;7.23;;
92;SDS011;16232;48.800;9.002;2023-04-25T12:59:33;8.43;;;6.87;;
92;SDS011;16232;48.800;9.002;2023-04-25T13:02:02;7.73;;;6.50;;
92;SDS011;16232;48.800;9.002;2023-04-25T13:04:29;7.60;;;6.43;;
92;SDS011;16232;48.800;9.002;2023-04-25T13:06:57;8.07;;;7.27;;
92;SDS011;16232;48.800;9.002;2023-04-25T13:09:25;7.67;;;6.90;;
92;SDS011;16232;48.800;9.002;2023-04-25T13:11:52;7.10;;;6.40;;
92;SDS011;16232;48.800;9.002;2023-04-25T13:14:20;9.37;;;7.50;;
92;SDS011;16232;48.800;9.002;2023-04-25T13:16:47;8.93;;;7.97;;
92;SDS011;16232;48.800;9.002;2023-04-25T13:19:16;8.13;;;7.33;;
92;SDS011;16232;48.800;9.002;2023-04-25T13:21:43;9.80;;;8.53;;
92;SDS011;16232;48.800;9.002;2023-04-25T13:24:11;11.03;;;9.00;;
92;SDS011;16232;48.800;9.002;2023-04-25T13:26:38;9.07;;;8.20;;
92;SDS011;16232;48.800;9.002;2023-04-25T13:29:06;9.23;;;7.50;;
92;SDS011;16232;48.800;9.002;2023-04-25T13:31:33;7.80;;;7.00;;
92;SDS011;16232;48.800;9.002;2023-04-25T13:34:01;8.37;;;7.47;;
92;SDS011;16232;48.800;9.002;2023-04-25T13:36:30;11.13;;;9.27;;
92;SDS011;16232;48.800;9.002;2023-04-25T13:38:58;13.13;;;9.43;;
92;SDS011;16232;48.800;9.002;2023-04-25T13:41:25;11.33;;;8.80;;
92;SDS011;16232;48.800;9.002;2023-04-25T13:43:52;8.93;;;7.80;;
92;SDS011;16232;48.800;9.002;2023-04-25T13:46:20;8.30;;;7.30;;
92;SDS011;16232;48.800;9.002;2023-04-25T13:48:48;7.73;;;6.13;;
92;SDS011;16232;48.800;9.002;2023-04-25T13:51:15;6.00;;;5.40;;
92;SDS011;16232;48.800;9.002;2023-04-25T13:53:44;6.00;;;5.50;;
92;SDS011;16232;48.800;9.002;2023-04-25T13:56:12;5.37;;;4.87;;
92;SDS011;16232;48.800;9.002;2023-04-25T13:58:39;5.03;;;4.60;;
92;SDS011;16232;48.800;9.002;2023-04-25T14:01:07;4.50;;;4.10;;
92;SDS011;16232;48.800;9.002;2023-04-25T14:03:34;7.83;;;5.00;;
92;SDS011;16232;48.800;9.002;2023-04-25T14:06:02;4.60;;;4.20;;
92;SDS011;16232;48.800;9.002;2023-04-25T14:08:29;4.83;;;4.43;;
92;SDS011;16232;48.800;9.002;2023-04-25T14:10:58;6.93;;;4.50;;
92;SDS011;16232;48.800;9.002;2023-04-25T14:13:26;5.57;;;5.07;;
92;SDS011;16232;48.800;9.002;2023-04-25T14:15:53;5.13;;;4.63;;
92;SDS011;16232;48.800;9.002;2023-04-25T14:18:20;4.93;;;4.53;;
92;SDS011;16232;48.800;9.002;2023-04-25T14:20:48;5.97;;;4.10;;
92;SDS011;16232;48.800;9.002;2023-04-25T14:23:16;5.13;;;4.63;;
92;SDS011;16232;48.800;9.002;2023-04-25T14:25:43;5.07;;;4.27;;
92;SDS011;16232;48.800;9.002;2023-04-25T14:28:12;5.30;;;4.37;;
92;SDS011;16232;48.800;9.002;2023-04-25T14:30:40;5.93;;;5.40;;
92;SDS011;16232;48.800;9.002;2023-04-25T14:33:07;6.30;;;5.03;;
92;SDS011;16232;48.800;9.002;2023-04-25T14:35:35;5.10;;;4.50;;
92;SDS011;16232;48.800;9.002;2023-04-25T14:38:02;5.40;;;4.90;;
92;SDS011;16232;48.800;9.002;2023-04-25T14:40:30;5.00;;;4.50;;
92;SDS011;16232;48.800;9.002;2023-04-25T14:42:58;7.53;;;4.37;;
92;SDS011;16232;48.800;9.002;2023-04-25T14:45:27;4.43;;;3.77;;
92;SDS011;16232;48.800;9.002;2023-04-25T14:47:55;4.53;;;4.13;;
92;SDS011;16232;48.800;9.002;2023-04-25T14:50:22;5.33;;;4.33;;
92;SDS011;16232;48.800;9.002;2023-04-25T14:52:50;6.53;;;4.23;;
92;SDS011;16232;48.800;9.002;2023-04-25T14:55:18;5.17;;;4.70;;
92;SDS011;16232;48.800;9.002;2023-04-25T14:57:45;5.10;;;4.63;;
92;SDS011;16232;48.800;9.002;2023-04-25T15:00:13;5.20;;;4.60;;
92;SDS011;16232;48.800;9.002;2023-04-25T15:02:43;4.53;;;4.13;;
92;SDS011;16232;48.800;9.002;2023-04-25T15:05:10;5.00;;;3.87;;
92;SDS011;16232;48.800;9.002;2023-04-25T15:07:38;5.57;;;4.47;;
92;SDS011;16232;48.800;9.002;2023-04-25T15:10:06;6.00;;;4.87;;
92;SDS011;16232;48.800;9.002;2023-04-25T15:12:38;4.70;;;4.30;;
92;SDS011;16232;48.800;9.002;2023-04-25T15:15:06;5.30;;;4.27;;
92;SDS011;16232;48.800;9.002;2023-04-25T15:17:36;5.27;;;4.13;;
92;SDS011;16232;48.800;9.002;2023-04-25T15:20:06;5.07;;;4.13;;
92;SDS011;16232;48.800;9.002;2023-04-25T15:22:35;4.80;;;4.40;;
92;SDS011;16232;48.800;9.002;2023-04-25T15:25:03;5.73;;;4.60;;
92;SDS011;16232;48.800;9.002;2023-04-25T15:27:31;4.40;;;3.90;;
92;SDS011;16232;48.800;9.002;2023-04-25T15:29:59;5.57;;;4.20;;
92;SDS011;16232;48.800;9.002;2023-04-25T15:32:27;4.00;;;3.70;;
92;SDS011;16232;48.800;9.002;2023-04-25T15:34:54;4.40;;;4.00;;